AQC weather

Klawock Seaplane Base
Klawock, Alaska, United States

Public forecast

Using degrees Fahrenheit for public forecast. Weather courtesy of forecast.io.

Closest aviation weather report (METAR) to Klawock Seaplane Base

Closest report is Klawock Airport, 1.7 nm (3.2 km) NNE. Retrieved 2019/11/18 06:53 UTC (1 hour ago):

PAKW 180653Z AUTO 17004KT 10SM FEW029 OVC036 07/05 A2994 RMK RAE52 SLP140 P0001 T00720050 TSNO VIA AUTODIAL

Closest aviation forecast (TAF) to Klawock Seaplane Base

Closest forecast is Klawock Airport, 1.7 nm (3.2 km) NNE. Retrieved 2019/11/18 06:39 UTC (1 hour ago):

TAF PAKW 180537Z 1806/1906 22006KT P6SM -SHRA FEW020 OVC035 AMD LTD TO CLD VIS AND WIND